Time;durP1;ratioP1;P1;durP2;ratioP2;P2;SDS_P1;SDS_P2;PMS_P1;PMS_P2;Temp;Humidity;BMP_temperature;BMP_pressure;BME280_temperature;BME280_humidity;BME280_pressure;Samples;Min_cycle;Max_cycle;Signal;HPM_P1;HPM_P2
2022/07/02 00:00:57;;;;;;;4.50;1.50;;;;;;;;;;5042959;28;20053;-63
2022/07/02 00:03:28;;;;;;;;;;;;;;;;;;5028773;28;20156;-65
2022/07/02 00:18:32;;;;;;;3.10;1.30;;;;;;;;;;4955855;28;20060;-65
2022/07/02 02:43:38;;;;;;;3.78;1.70;;;;;;;;;;5777616;24;20023;-66
2022/07/02 04:01:41;;;;;;;3.65;1.75;;;;;;;;;;5498193;22;18653262;-64
2022/07/02 04:04:08;;;;;;;4.82;2.10;;;;;;;;;;6292489;22;20019;-64
2022/07/02 04:06:34;;;;;;;1.90;1.25;;;;;;;;;;6295700;22;20026;-63
2022/07/02 04:09:02;;;;;;;7.32;2.03;;;;;;;;;;6287075;22;20026;-63
2022/07/02 04:11:28;;;;;;;4.13;1.63;;;;;;;;;;6292172;22;20050;-63
2022/07/02 04:13:55;;;;;;;3.42;1.50;;;;;;;;;;6292479;22;20021;-63
2022/07/02 04:16:21;;;;;;;6.65;2.10;;;;;;;;;;6312012;22;20022;-63
2022/07/02 04:18:49;;;;;;;3.97;1.98;;;;;;;;;;6308718;22;20079;-63
2022/07/02 04:21:16;;;;;;;4.00;1.58;;;;;;;;;;6311945;22;20022;-63
2022/07/02 04:23:43;;;;;;;5.03;2.42;;;;;;;;;;6296257;22;20034;-63
2022/07/02 04:26:10;;;;;;;2.38;1.40;;;;;;;;;;6278063;22;20011;-63
2022/07/02 04:28:38;;;;;;;7.63;2.33;;;;;;;;;;6296788;22;20035;-64
2022/07/02 04:31:04;;;;;;;4.35;1.90;;;;;;;;;;6290850;22;20026;-63
2022/07/02 04:33:31;;;;;;;2.45;1.38;;;;;;;;;;6281487;22;20027;-61
2022/07/02 04:35:59;;;;;;;3.42;1.60;;;;;;;;;;6276215;22;20019;-61
2022/07/02 04:38:26;;;;;;;6.60;1.92;;;;;;;;;;6280552;22;20061;-61
2022/07/02 04:40:53;;;;;;;6.57;2.28;;;;;;;;;;6304723;22;20045;-61
2022/07/02 04:43:19;;;;;;;7.22;2.60;;;;;;;;;;6304982;22;20015;-61
2022/07/02 04:45:46;;;;;;;2.17;1.48;;;;;;;;;;6302046;22;20019;-62
2022/07/02 04:48:14;;;;;;;3.95;1.77;;;;;;;;;;6303986;22;20058;-61
2022/07/02 04:50:41;;;;;;;2.47;1.60;;;;;;;;;;6303403;22;20070;-62
2022/07/02 04:53:09;;;;;;;4.57;2.00;;;;;;;;;;6275907;22;20062;-61
2022/07/02 04:55:36;;;;;;;2.33;1.50;;;;;;;;;;6300498;22;20015;-61
2022/07/02 04:58:03;;;;;;;3.85;1.42;;;;;;;;;;6269052;22;20019;-61
2022/07/02 05:00:29;;;;;;;2.90;1.30;;;;;;;;;;6297879;22;20027;-63
2022/07/02 05:02:56;;;;;;;3.50;1.60;;;;;;;;;;6275474;22;20016;-62
2022/07/02 05:05:23;;;;;;;4.00;1.70;;;;;;;;;;6287222;22;20022;-62
2022/07/02 05:07:50;;;;;;;8.02;2.35;;;;;;;;;;6278183;22;20023;-62
2022/07/02 05:10:18;;;;;;;3.60;1.75;;;;;;;;;;6269371;22;20094;-63
2022/07/02 05:12:45;;;;;;;2.45;1.40;;;;;;;;;;6273377;22;20033;-63
2022/07/02 05:15:11;;;;;;;4.05;1.83;;;;;;;;;;6269068;22;20019;-62
2022/07/02 05:17:39;;;;;;;5.15;2.05;;;;;;;;;;6300017;22;20030;-63
2022/07/02 05:20:06;;;;;;;3.63;1.77;;;;;;;;;;6269201;22;20023;-62
2022/07/02 05:22:33;;;;;;;6.72;1.88;;;;;;;;;;6297748;22;20026;-62
2022/07/02 05:24:59;;;;;;;8.00;2.78;;;;;;;;;;6299525;22;20015;-62
2022/07/02 05:27:28;;;;;;;5.10;1.88;;;;;;;;;;6295692;22;20015;-62
2022/07/02 05:29:54;;;;;;;2.42;1.30;;;;;;;;;;6274185;22;20023;-62
2022/07/02 05:32:21;;;;;;;3.90;1.30;;;;;;;;;;6294511;22;20019;-62
2022/07/02 05:34:47;;;;;;;4.50;2.03;;;;;;;;;;6273085;22;20030;-62
2022/07/02 05:37:14;;;;;;;4.03;1.50;;;;;;;;;;6268290;22;20019;-62
2022/07/02 05:39:40;;;;;;;3.05;1.73;;;;;;;;;;6298139;22;20015;-62
2022/07/02 05:42:07;;;;;;;2.22;1.40;;;;;;;;;;6271009;22;20019;-62
2022/07/02 05:44:35;;;;;;;4.20;1.48;;;;;;;;;;6296755;22;20019;-62
2022/07/02 05:47:02;;;;;;;2.55;1.25;;;;;;;;;;6273306;22;20027;-62
2022/07/02 05:49:29;;;;;;;4.35;1.65;;;;;;;;;;6295243;22;20023;-62
2022/07/02 05:51:55;;;;;;;2.97;1.60;;;;;;;;;;6301022;22;20068;-62
2022/07/02 05:54:22;;;;;;;2.67;1.60;;;;;;;;;;6270248;22;20021;-62
2022/07/02 05:56:50;;;;;;;3.83;1.60;;;;;;;;;;6274563;22;20021;-62
2022/07/02 05:59:16;;;;;;;2.05;1.42;;;;;;;;;;6270720;22;20015;-62
2022/07/02 06:01:44;;;;;;;4.88;1.80;;;;;;;;;;6240711;22;20024;-62
2022/07/02 06:04:11;;;;;;;5.65;2.25;;;;;;;;;;6234049;22;20016;-62
2022/07/02 06:09:22;;;;;;;6.78;2.00;;;;;;;;;;6228095;22;20061;-62
2022/07/02 06:11:49;;;;;;;3.22;1.63;;;;;;;;;;6232926;23;20016;-62
2022/07/02 06:14:15;;;;;;;9.38;2.05;;;;;;;;;;6237046;22;20088;-62
2022/07/02 06:16:42;;;;;;;6.95;1.70;;;;;;;;;;6232400;23;20024;-62
2022/07/02 06:19:10;;;;;;;5.10;1.90;;;;;;;;;;6236722;23;20016;-62
2022/07/02 06:21:37;;;;;;;3.53;1.52;;;;;;;;;;6231760;23;20031;-62
2022/07/02 06:24:04;;;;;;;3.42;1.70;;;;;;;;;;6236965;22;20097;-62
2022/07/02 06:26:30;;;;;;;4.53;1.30;;;;;;;;;;6234862;23;20036;-62
2022/07/02 06:28:57;;;;;;;6.85;1.73;;;;;;;;;;6246736;22;20024;-62
2022/07/02 06:31:24;;;;;;;3.83;1.65;;;;;;;;;;6268642;22;20015;-62
2022/07/02 06:33:50;;;;;;;3.38;1.70;;;;;;;;;;6264185;22;20034;-62
2022/07/02 06:36:21;;;;;;;2.53;1.20;;;;;;;;;;6266871;22;20085;-62
2022/07/02 06:38:48;;;;;;;4.90;1.83;;;;;;;;;;6262906;22;20101;-62
2022/07/02 06:42:18;;;;;;;3.67;1.50;;;;;;;;;;6268080;22;20046;-62
2022/07/02 06:44:02;;;;;;;;;;;;;;;;;;6262722;22;20042;-62
2022/07/02 06:46:29;;;;;;;6.20;1.60;;;;;;;;;;6267743;22;19923;-62
2022/07/02 06:48:56;;;;;;;6.20;1.42;;;;;;;;;;6267498;22;20019;-62
2022/07/02 06:51:26;;;;;;;4.32;1.40;;;;;;;;;;6265126;22;20020;-62
2022/07/02 06:53:53;;;;;;;3.60;1.25;;;;;;;;;;6268171;22;20024;-62
2022/07/02 06:56:20;;;;;;;3.37;1.47;;;;;;;;;;6263371;22;20015;-62
2022/07/02 06:58:47;;;;;;;2.58;1.25;;;;;;;;;;6267894;22;20024;-62
2022/07/02 07:01:13;;;;;;;5.47;1.75;;;;;;;;;;6262821;22;20094;-62
2022/07/02 07:03:40;;;;;;;2.85;1.40;;;;;;;;;;6263815;22;20027;-63
2022/07/02 07:06:07;;;;;;;5.00;1.52;;;;;;;;;;6262803;22;20020;-62
2022/07/02 07:08:36;;;;;;;4.35;1.10;;;;;;;;;;6241209;22;20020;-62
2022/07/02 07:11:03;;;;;;;2.10;0.98;;;;;;;;;;6234194;23;20035;-62
2022/07/02 07:13:29;;;;;;;9.75;1.20;;;;;;;;;;6257488;22;20036;-62
2022/07/02 07:15:56;;;;;;;3.17;1.10;;;;;;;;;;6236206;23;20024;-62
2022/07/02 07:18:22;;;;;;;3.80;1.23;;;;;;;;;;6231960;23;20024;-62
2022/07/02 07:20:50;;;;;;;1.45;1.00;;;;;;;;;;6236786;23;20090;-62
2022/07/02 07:23:16;;;;;;;5.72;1.13;;;;;;;;;;6231276;23;20078;-63
2022/07/02 07:25:44;;;;;;;4.00;1.40;;;;;;;;;;6236152;23;20032;-63
2022/07/02 07:28:11;;;;;;;6.18;1.00;;;;;;;;;;6233102;23;20095;-64
2022/07/02 07:30:38;;;;;;;6.25;1.02;;;;;;;;;;6236312;23;20099;-62
2022/07/02 07:33:05;;;;;;;3.00;1.20;;;;;;;;;;6238248;23;20095;-62
2022/07/02 07:35:31;;;;;;;4.05;1.00;;;;;;;;;;6231628;23;20020;-62
2022/07/02 07:38:02;;;;;;;1.60;0.90;;;;;;;;;;6263005;22;20024;-62
2022/07/02 07:40:29;;;;;;;2.03;0.85;;;;;;;;;;6231441;23;20035;-62
2022/07/02 07:42:58;;;;;;;11.52;4.57;;;;;;;;;;6234638;22;20131;-62
2022/07/02 07:45:25;;;;;;;9.02;2.88;;;;;;;;;;6231468;22;20016;-62
2022/07/02 07:47:51;;;;;;;7.13;1.40;;;;;;;;;;6262930;22;20062;-62
2022/07/02 07:50:18;;;;;;;2.33;1.00;;;;;;;;;;6235538;22;20103;-62
2022/07/02 07:52:45;;;;;;;3.55;1.08;;;;;;;;;;6262156;22;20024;-69
2022/07/02 07:55:11;;;;;;;4.68;1.17;;;;;;;;;;6263070;22;20012;-66
2022/07/02 07:57:39;;;;;;;2.03;1.00;;;;;;;;;;6234239;22;20020;-67
2022/07/02 08:00:08;;;;;;;3.60;1.02;;;;;;;;;;6237172;22;20022;-67
2022/07/02 08:02:34;;;;;;;;;;;;;;;;;;6256111;22;20023;-67
2022/07/02 08:05:01;;;;;;;3.17;1.02;;;;;;;;;;6237168;22;19924;-67
2022/07/02 08:07:27;;;;;;;2.90;0.88;;;;;;;;;;6233898;22;20031;-67
2022/07/02 08:09:55;;;;;;;1.67;0.80;;;;;;;;;;6236793;22;20031;-66
2022/07/02 08:12:22;;;;;;;2.10;0.90;;;;;;;;;;6237489;23;20024;-67
2022/07/02 08:14:48;;;;;;;1.02;0.63;;;;;;;;;;6234221;23;20030;-67
2022/07/02 08:17:16;;;;;;;4.63;0.98;;;;;;;;;;6243693;22;20031;-65
2022/07/02 08:19:43;;;;;;;4.28;1.30;;;;;;;;;;6258822;22;20024;-69
2022/07/02 08:22:10;;;;;;;3.20;1.35;;;;;;;;;;6237172;22;20024;-66
2022/07/02 08:24:36;;;;;;;1.45;0.90;;;;;;;;;;6235113;23;20043;-67
2022/07/02 08:27:06;;;;;;;6.18;0.80;;;;;;;;;;6238627;23;20098;-71
2022/07/02 08:29:32;;;;;;;7.97;0.90;;;;;;;;;;6240313;22;20028;-69
2022/07/02 08:31:59;;;;;;;1.58;0.90;;;;;;;;;;6238949;23;20016;-71
2022/07/02 08:34:27;;;;;;;2.40;0.63;;;;;;;;;;6236072;23;20097;-69
2022/07/02 08:36:55;;;;;;;4.30;0.80;;;;;;;;;;6238337;23;20087;-72
2022/07/02 08:39:22;;;;;;;2.10;0.80;;;;;;;;;;6238316;22;20027;-71
2022/07/02 08:41:49;;;;;;;1.13;0.60;;;;;;;;;;6260509;22;20071;-71
2022/07/02 08:44:16;;;;;;;0.40;0.40;;;;;;;;;;6239385;23;20039;-73
2022/07/02 08:46:44;;;;;;;1.85;0.80;;;;;;;;;;6248687;22;20099;-67
2022/07/02 08:49:11;;;;;;;3.90;1.10;;;;;;;;;;6256159;22;20020;-68
2022/07/02 08:51:41;;;;;;;4.70;1.35;;;;;;;;;;6235231;23;20020;-69
2022/07/02 08:54:08;;;;;;;3.30;1.02;;;;;;;;;;6253656;22;20051;-70
2022/07/02 08:56:34;;;;;;;5.68;1.27;;;;;;;;;;6265648;22;20073;-68
2022/07/02 08:59:02;;;;;;;2.22;1.00;;;;;;;;;;6295723;22;20031;-69
2022/07/02 09:01:28;;;;;;;2.53;1.20;;;;;;;;;;6291430;22;20081;-67
2022/07/02 09:03:58;;;;;;;3.40;1.30;;;;;;;;;;6269304;22;20103;-66
2022/07/02 09:06:28;;;;;;;3.20;1.10;;;;;;;;;;6266135;22;20089;-67
2022/07/02 09:08:56;;;;;;;4.43;1.38;;;;;;;;;;6252347;22;20020;-66
2022/07/02 09:11:23;;;;;;;6.13;1.05;;;;;;;;;;6234795;23;20031;-67
2022/07/02 09:13:50;;;;;;;2.28;0.77;;;;;;;;;;6257565;22;20073;-67
2022/07/02 09:16:17;;;;;;;2.42;0.90;;;;;;;;;;6265583;22;20024;-67
2022/07/02 09:18:43;;;;;;;2.92;0.80;;;;;;;;;;6269623;22;20042;-67
2022/07/02 09:21:10;;;;;;;3.67;0.90;;;;;;;;;;6265355;22;20020;-67
2022/07/02 09:23:47;;;;;;;2.58;1.17;;;;;;;;;;6268587;22;20030;-67
2022/07/02 09:26:19;;;;;;;7.63;1.00;;;;;;;;;;6268323;22;20115;-67
2022/07/02 09:28:52;;;;;;;2.97;0.80;;;;;;;;;;6268362;22;20026;-67
2022/07/02 09:31:18;;;;;;;2.45;1.00;;;;;;;;;;6269367;22;20046;-67
2022/07/02 09:33:45;;;;;;;3.92;1.10;;;;;;;;;;6266184;22;20065;-67
2022/07/02 09:36:12;;;;;;;3.72;1.30;;;;;;;;;;6268833;22;20078;-67
2022/07/02 09:38:44;;;;;;;5.65;1.00;;;;;;;;;;6264457;22;20027;-67
2022/07/02 09:41:12;;;;;;;5.20;0.90;;;;;;;;;;6269192;22;20024;-67
2022/07/02 09:43:40;;;;;;;3.95;0.98;;;;;;;;;;6266239;22;20019;-67
2022/07/02 09:46:14;;;;;;;1.90;0.90;;;;;;;;;;6268095;22;20027;-67
2022/07/02 09:48:41;;;;;;;2.42;0.80;;;;;;;;;;6262865;22;20026;-68
2022/07/02 09:51:08;;;;;;;4.57;1.33;;;;;;;;;;6269602;22;20022;-67
2022/07/02 09:53:34;;;;;;;2.88;1.20;;;;;;;;;;6266309;22;20078;-67
2022/07/02 09:56:04;;;;;;;4.70;1.20;;;;;;;;;;6269392;22;20030;-68
2022/07/02 09:58:34;;;;;;;3.53;1.20;;;;;;;;;;6265083;22;20027;-69
2022/07/02 10:01:03;;;;;;;3.10;1.10;;;;;;;;;;6268826;22;20189;-69
2022/07/02 10:03:30;;;;;;;2.67;1.00;;;;;;;;;;6265056;22;20103;-69
2022/07/02 10:05:57;;;;;;;3.42;0.85;;;;;;;;;;6262688;22;20028;-67
2022/07/02 10:08:24;;;;;;;2.90;0.95;;;;;;;;;;6266747;22;20015;-67
2022/07/02 10:10:50;;;;;;;2.45;0.93;;;;;;;;;;6267279;22;20016;-67
2022/07/02 10:13:20;;;;;;;3.22;1.00;;;;;;;;;;6269449;22;20020;-67
2022/07/02 10:15:51;;;;;;;5.95;0.70;;;;;;;;;;6265864;22;20045;-67
2022/07/02 10:18:19;;;;;;;3.60;0.82;;;;;;;;;;6269378;22;20024;-68
2022/07/02 10:20:46;;;;;;;2.28;0.93;;;;;;;;;;6266665;22;20024;-67
2022/07/02 10:23:13;;;;;;;3.72;0.90;;;;;;;;;;6269438;22;20023;-68
2022/07/02 10:25:40;;;;;;;2.03;0.77;;;;;;;;;;6265842;22;20043;-67
2022/07/02 10:28:07;;;;;;;3.10;1.02;;;;;;;;;;6269135;22;20046;-66
2022/07/02 10:30:34;;;;;;;3.35;0.80;;;;;;;;;;6267652;22;20023;-67
2022/07/02 10:33:05;;;;;;;4.32;0.75;;;;;;;;;;6268459;22;20030;-67
2022/07/02 10:35:33;;;;;;;1.15;0.70;;;;;;;;;;6269146;22;20016;-67
2022/07/02 10:38:01;;;;;;;;;;;;;;;;;;6266812;22;20015;-67
2022/07/02 10:40:27;;;;;;;6.75;1.00;;;;;;;;;;6269385;22;19919;-67
2022/07/02 10:42:57;;;;;;;3.78;0.98;;;;;;;;;;6265349;22;20019;-67
2022/07/02 10:45:24;;;;;;;2.42;0.80;;;;;;;;;;6268694;22;20023;-67
2022/07/02 10:47:55;;;;;;;3.35;0.85;;;;;;;;;;6265531;22;20077;-67
2022/07/02 10:50:25;;;;;;;3.65;1.20;;;;;;;;;;6268578;22;20019;-67
2022/07/02 10:52:55;;;;;;;2.05;0.70;;;;;;;;;;6267730;22;20019;-67
2022/07/02 10:55:28;;;;;;;4.68;2.38;;;;;;;;;;6267375;22;20027;-67
2022/07/02 10:57:57;;;;;;;3.65;1.17;;;;;;;;;;6268530;22;20026;-66
2022/07/02 11:00:27;;;;;;;4.80;2.15;;;;;;;;;;6266078;22;20016;-67
2022/07/02 11:02:54;;;;;;;4.97;2.25;;;;;;;;;;6298001;22;20042;-67
2022/07/02 11:05:21;;;;;;;6.03;1.80;;;;;;;;;;6273052;22;20020;-67
2022/07/02 11:07:47;;;;;;;3.83;1.27;;;;;;;;;;6318110;22;20023;-67
2022/07/02 11:10:15;;;;;;;5.18;2.72;;;;;;;;;;6296009;22;20026;-67
2022/07/02 11:12:46;;;;;;;5.90;2.78;;;;;;;;;;6299294;22;20023;-66
2022/07/02 11:15:19;;;;;;;5.45;2.50;;;;;;;;;;6298458;22;20030;-67
2022/07/02 11:17:49;;;;;;;4.00;1.92;;;;;;;;;;6298012;22;20019;-67
2022/07/02 11:20:22;;;;;;;4.32;2.13;;;;;;;;;;6270287;22;20020;-68
2022/07/02 11:22:49;;;;;;;4.65;0.77;;;;;;;;;;6264127;22;20019;-67
2022/07/02 11:25:17;;;;;;;3.35;1.42;;;;;;;;;;6293026;22;20016;-67
2022/07/02 11:27:44;;;;;;;;;;;;;;;;;;6287994;22;20067;-67
2022/07/02 11:30:11;;;;;;;3.28;1.60;;;;;;;;;;6268955;22;19919;-67
2022/07/02 11:32:39;;;;;;;2.85;1.17;;;;;;;;;;6264185;22;20019;-67
2022/07/02 11:35:06;;;;;;;3.75;1.80;;;;;;;;;;6268036;22;20027;-67
2022/07/02 11:37:33;;;;;;;4.03;1.85;;;;;;;;;;6264276;22;20096;-67
2022/07/02 11:40:00;;;;;;;4.38;1.00;;;;;;;;;;6267782;22;20023;-67
2022/07/02 11:42:37;;;;;;;3.17;1.02;;;;;;;;;;6265428;22;20015;-66
2022/07/02 11:45:04;;;;;;;4.97;0.82;;;;;;;;;;6268760;22;20034;-67
2022/07/02 11:47:31;;;;;;;2.55;0.85;;;;;;;;;;6266568;22;20094;-67
2022/07/02 11:49:57;;;;;;;3.88;1.00;;;;;;;;;;6293457;22;20024;-66
2022/07/02 11:52:24;;;;;;;2.60;1.05;;;;;;;;;;6264496;22;20015;-67
2022/07/02 11:54:51;;;;;;;5.40;1.58;;;;;;;;;;6267939;22;20090;-66
2022/07/02 11:57:19;;;;;;;4.07;1.02;;;;;;;;;;6263923;22;20026;-66
2022/07/02 11:59:52;;;;;;;2.55;1.20;;;;;;;;;;6295438;22;20020;-66
2022/07/02 12:02:19;;;;;;;4.57;1.40;;;;;;;;;;6270157;22;20030;-66
2022/07/02 12:04:47;;;;;;;3.88;1.00;;;;;;;;;;6276251;22;20103;-66
2022/07/02 12:07:15;;;;;;;1.95;0.98;;;;;;;;;;6288299;22;20024;-66
2022/07/02 12:09:42;;;;;;;3.63;1.03;;;;;;;;;;6262553;22;20016;-66
2022/07/02 12:12:09;;;;;;;2.67;1.20;;;;;;;;;;6269386;22;20023;-66
2022/07/02 12:14:37;;;;;;;3.42;0.88;;;;;;;;;;6265789;22;20106;-67
2022/07/02 12:17:12;;;;;;;2.80;1.08;;;;;;;;;;6270711;22;20019;-66
2022/07/02 12:19:39;;;;;;;3.33;1.10;;;;;;;;;;6266437;22;20073;-66
2022/07/02 12:22:06;;;;;;;2.67;1.10;;;;;;;;;;6279138;22;20023;-66
2022/07/02 12:24:34;;;;;;;5.03;1.33;;;;;;;;;;6265724;22;20020;-66
2022/07/02 12:27:02;;;;;;;2.13;1.20;;;;;;;;;;6269223;22;20023;-66
2022/07/02 12:32:16;;;;;;;3.92;1.30;;;;;;;;;;6269503;22;20016;-66
2022/07/02 12:34:43;;;;;;;4.60;1.80;;;;;;;;;;6266246;22;20019;-65
2022/07/02 12:37:19;;;;;;;5.75;1.85;;;;;;;;;;6268572;22;20015;-67
2022/07/02 12:39:46;;;;;;;3.80;1.40;;;;;;;;;;6264680;22;20064;-66
2022/07/02 12:42:14;;;;;;;5.15;1.30;;;;;;;;;;6313149;22;20023;-67
2022/07/02 12:44:50;;;;;;;7.22;2.80;;;;;;;;;;6271075;22;20027;-67
2022/07/02 12:47:24;;;;;;;7.55;1.38;;;;;;;;;;6291507;22;20023;-66
2022/07/02 12:49:54;;;;;;;9.65;3.45;;;;;;;;;;6266263;22;20031;-66
2022/07/02 12:52:21;;;;;;;5.85;1.13;;;;;;;;;;6270432;22;20026;-66
2022/07/02 12:54:48;;;;;;;6.13;1.95;;;;;;;;;;6263969;22;20095;-66
2022/07/02 12:57:22;;;;;;;3.20;1.50;;;;;;;;;;6325469;22;20027;-66
2022/07/02 12:59:50;;;;;;;1.45;0.70;;;;;;;;;;6322180;22;20023;-66
2022/07/02 13:02:19;;;;;;;4.45;1.35;;;;;;;;;;6299630;22;20019;-66
2022/07/02 13:04:48;;;;;;;1.27;0.60;;;;;;;;;;6300153;22;20019;-66
2022/07/02 13:07:15;;;;;;;4.70;2.38;;;;;;;;;;6298358;22;20023;-67
2022/07/02 13:09:42;;;;;;;7.15;2.70;;;;;;;;;;6293625;22;20012;-66
2022/07/02 13:12:10;;;;;;;3.97;1.38;;;;;;;;;;6265812;22;20019;-66
2022/07/02 13:14:37;;;;;;;5.07;2.08;;;;;;;;;;6269396;22;20028;-67
2022/07/02 13:17:04;;;;;;;4.75;2.05;;;;;;;;;;6265379;22;20082;-65
2022/07/02 13:19:30;;;;;;;2.60;1.17;;;;;;;;;;6268794;22;20022;-66
2022/07/02 13:21:58;;;;;;;3.05;1.83;;;;;;;;;;6264936;22;20020;-65
2022/07/02 13:24:25;;;;;;;4.07;1.65;;;;;;;;;;6269238;22;20015;-66
2022/07/02 13:26:52;;;;;;;4.15;1.33;;;;;;;;;;6265873;22;20093;-65
2022/07/02 13:29:18;;;;;;;3.40;1.27;;;;;;;;;;6275015;22;20019;-63
2022/07/02 13:31:45;;;;;;;2.60;1.13;;;;;;;;;;6322684;22;20035;-66
2022/07/02 13:34:11;;;;;;;4.53;1.80;;;;;;;;;;6325753;22;20061;-66
2022/07/02 13:36:38;;;;;;;3.38;1.63;;;;;;;;;;6295702;22;20042;-66
2022/07/02 13:39:06;;;;;;;2.60;1.15;;;;;;;;;;6325947;22;20027;-66
2022/07/02 13:41:33;;;;;;;3.55;1.00;;;;;;;;;;6296165;22;20023;-67
2022/07/02 13:43:59;;;;;;;1.50;1.00;;;;;;;;;;6326300;22;20050;-67
2022/07/02 13:46:32;;;;;;;4.65;1.33;;;;;;;;;;6286654;22;20083;-67
2022/07/02 13:48:59;;;;;;;6.07;1.15;;;;;;;;;;6268230;22;20077;-64
2022/07/02 13:51:26;;;;;;;2.13;1.13;;;;;;;;;;6266399;22;20068;-68
2022/07/02 13:53:53;;;;;;;3.40;0.63;;;;;;;;;;6279270;22;20012;-67
2022/07/02 13:56:21;;;;;;;2.03;0.93;;;;;;;;;;6325589;22;20015;-67
2022/07/02 13:58:47;;;;;;;3.67;0.85;;;;;;;;;;6295816;22;20021;-67
2022/07/02 14:01:14;;;;;;;2.17;0.85;;;;;;;;;;6274681;22;20024;-68
2022/07/02 14:03:41;;;;;;;3.75;1.20;;;;;;;;;;6231243;23;20026;-67
2022/07/02 14:06:08;;;;;;;1.95;0.80;;;;;;;;;;6250132;22;20046;-67
2022/07/02 14:08:35;;;;;;;1.52;0.80;;;;;;;;;;6262988;22;20024;-66
2022/07/02 14:11:02;;;;;;;2.28;1.00;;;;;;;;;;6265508;22;20090;-66
2022/07/02 14:13:30;;;;;;;1.95;0.98;;;;;;;;;;6262699;22;20048;-64
2022/07/02 14:15:57;;;;;;;3.10;1.00;;;;;;;;;;6267750;22;20123;-65
2022/07/02 14:18:23;;;;;;;3.75;1.02;;;;;;;;;;6267306;22;20019;-67
2022/07/02 14:20:50;;;;;;;1.55;0.70;;;;;;;;;;6262304;22;20024;-66
2022/07/02 14:23:16;;;;;;;2.45;0.82;;;;;;;;;;6267586;22;20016;-64
2022/07/02 14:25:43;;;;;;;2.97;1.20;;;;;;;;;;6262880;22;20034;-67
2022/07/02 14:28:10;;;;;;;3.25;0.90;;;;;;;;;;6268672;22;20073;-65
2022/07/02 14:30:40;;;;;;;2.35;0.80;;;;;;;;;;6262853;22;20030;-65
2022/07/02 14:33:07;;;;;;;2.22;0.80;;;;;;;;;;6267113;22;20043;-65
2022/07/02 14:35:33;;;;;;;2.25;0.90;;;;;;;;;;6263878;22;20016;-66
2022/07/02 14:38:00;;;;;;;3.33;0.82;;;;;;;;;;6266059;22;20026;-68
2022/07/02 14:40:26;;;;;;;3.03;1.10;;;;;;;;;;6266937;22;20024;-67
2022/07/02 14:42:53;;;;;;;5.03;0.88;;;;;;;;;;6262584;22;20016;-65
2022/07/02 14:45:20;;;;;;;2.90;0.82;;;;;;;;;;6292318;22;20023;-66
2022/07/02 14:47:48;;;;;;;5.93;1.17;;;;;;;;;;6262475;22;20019;-66
2022/07/02 14:50:14;;;;;;;;;;;;;;;;;;6267809;22;20096;-66
2022/07/02 14:52:41;;;;;;;5.97;1.20;;;;;;;;;;6262618;22;19919;-64
2022/07/02 14:55:08;;;;;;;1.85;0.65;;;;;;;;;;6267425;22;20020;-66
2022/07/02 14:57:36;;;;;;;3.17;0.77;;;;;;;;;;6267266;22;20023;-66
2022/07/02 15:00:03;;;;;;;1.60;0.80;;;;;;;;;;6288496;22;20027;-65
2022/07/02 15:02:30;;;;;;;3.85;0.90;;;;;;;;;;6281264;22;20046;-65
2022/07/02 15:05:02;;;;;;;1.75;0.82;;;;;;;;;;6235846;22;20020;-66
2022/07/02 15:07:28;;;;;;;3.15;0.90;;;;;;;;;;6258312;22;20016;-67
2022/07/02 15:09:55;;;;;;;2.92;1.35;;;;;;;;;;6231731;22;20027;-66
2022/07/02 15:12:22;;;;;;;2.45;0.93;;;;;;;;;;6234713;23;20031;-66
2022/07/02 15:17:33;;;;;;;3.50;1.00;;;;;;;;;;6235845;22;20047;-65
2022/07/02 15:20:01;;;;;;;1.75;0.73;;;;;;;;;;6236684;22;20035;-65
2022/07/02 15:22:32;;;;;;;2.03;0.90;;;;;;;;;;6233402;22;20020;-65
2022/07/02 15:25:03;;;;;;;2.97;0.90;;;;;;;;;;6236037;22;20034;-66
2022/07/02 15:27:31;;;;;;;2.67;0.93;;;;;;;;;;6233820;23;20031;-66
2022/07/02 15:29:58;;;;;;;3.90;1.00;;;;;;;;;;6244368;22;20113;-65
2022/07/02 15:32:25;;;;;;;3.53;0.90;;;;;;;;;;6256802;22;20024;-66
2022/07/02 15:34:52;;;;;;;7.07;0.98;;;;;;;;;;6236009;23;20020;-67
2022/07/02 15:37:22;;;;;;;3.13;0.90;;;;;;;;;;6258386;22;20017;-66
2022/07/02 15:39:50;;;;;;;5.20;0.90;;;;;;;;;;6237098;23;20024;-67
2022/07/02 15:42:22;;;;;;;11.07;1.45;;;;;;;;;;6233323;23;20024;-66
2022/07/02 15:44:49;;;;;;;4.93;0.98;;;;;;;;;;6236765;23;20086;-64
2022/07/02 15:47:17;;;;;;;2.47;0.75;;;;;;;;;;6233374;23;20020;-67
2022/07/02 15:49:45;;;;;;;1.40;0.80;;;;;;;;;;6235355;23;20051;-65
2022/07/02 15:52:16;;;;;;;5.85;0.80;;;;;;;;;;6233142;23;20016;-66
2022/07/02 15:54:50;;;;;;;2.22;0.80;;;;;;;;;;6235928;23;20020;-65
2022/07/02 15:57:18;;;;;;;4.30;0.90;;;;;;;;;;6232587;23;20122;-65
2022/07/02 15:59:46;;;;;;;2.67;0.90;;;;;;;;;;6236778;23;20111;-66
2022/07/02 16:02:14;;;;;;;4.85;1.17;;;;;;;;;;6291474;22;20024;-66
2022/07/02 16:04:42;;;;;;;4.50;0.80;;;;;;;;;;6279297;22;20107;-66
2022/07/02 16:07:10;;;;;;;3.38;0.70;;;;;;;;;;6261497;22;20019;-66
2022/07/02 16:09:37;;;;;;;2.30;0.82;;;;;;;;;;6266924;22;20023;-67
2022/07/02 16:12:06;;;;;;;6.40;1.00;;;;;;;;;;6267452;22;20027;-65
2022/07/02 16:14:33;;;;;;;4.38;0.70;;;;;;;;;;6278761;22;20019;-66
2022/07/02 16:17:01;;;;;;;3.92;1.02;;;;;;;;;;6267323;22;20023;-63
2022/07/02 16:19:30;;;;;;;1.25;0.70;;;;;;;;;;6262883;22;20026;-66
2022/07/02 16:21:57;;;;;;;3.45;0.80;;;;;;;;;;6266527;22;20024;-66
2022/07/02 16:24:24;;;;;;;2.17;0.73;;;;;;;;;;6261949;22;20019;-66
2022/07/02 16:26:51;;;;;;;4.22;1.00;;;;;;;;;;6275579;22;20111;-65
2022/07/02 16:29:22;;;;;;;3.15;0.93;;;;;;;;;;6262549;22;20062;-66
2022/07/02 16:31:49;;;;;;;1.58;0.73;;;;;;;;;;6267000;22;20024;-67
2022/07/02 16:34:19;;;;;;;2.22;1.00;;;;;;;;;;6283288;22;20074;-67
2022/07/02 16:36:50;;;;;;;4.15;0.80;;;;;;;;;;6292994;22;20031;-67
2022/07/02 16:39:18;;;;;;;3.42;0.60;;;;;;;;;;6266465;22;20099;-67
2022/07/02 16:41:46;;;;;;;1.25;0.68;;;;;;;;;;6265784;22;20024;-64
2022/07/02 16:44:13;;;;;;;7.13;0.88;;;;;;;;;;6286598;22;20344;-64
2022/07/02 16:46:45;;;;;;;4.27;0.90;;;;;;;;;;6269031;22;20023;-65
2022/07/02 16:49:13;;;;;;;2.15;1.02;;;;;;;;;;6252225;22;20020;-68
2022/07/02 16:51:40;;;;;;;2.40;1.05;;;;;;;;;;6250681;22;20027;-65
2022/07/02 16:54:08;;;;;;;4.47;1.20;;;;;;;;;;6241765;22;20019;-67
2022/07/02 16:56:34;;;;;;;2.85;0.90;;;;;;;;;;6325408;22;20046;-67
2022/07/02 16:59:03;;;;;;;2.97;0.77;;;;;;;;;;6297591;22;20020;-65
2022/07/02 17:01:31;;;;;;;2.15;0.80;;;;;;;;;;6291199;22;20047;-67
2022/07/02 17:03:59;;;;;;;3.03;0.80;;;;;;;;;;6296153;22;20098;-67
2022/07/02 17:06:26;;;;;;;3.90;0.65;;;;;;;;;;6289554;22;20015;-65
2022/07/02 17:08:53;;;;;;;1.08;0.70;;;;;;;;;;6302390;22;20023;-66
2022/07/02 17:11:31;;;;;;;1.15;0.77;;;;;;;;;;6293755;22;20027;-64
2022/07/02 17:13:59;;;;;;;0.68;0.60;;;;;;;;;;6290230;22;20020;-67
2022/07/02 17:16:27;;;;;;;3.10;0.90;;;;;;;;;;6287005;22;20085;-66
2022/07/02 17:18:53;;;;;;;2.33;0.75;;;;;;;;;;6271716;22;20019;-65
2022/07/02 17:21:23;;;;;;;2.92;0.80;;;;;;;;;;6288739;22;20019;-64
2022/07/02 17:23:49;;;;;;;2.45;0.60;;;;;;;;;;6268078;22;20023;-64
2022/07/02 17:26:17;;;;;;;2.28;0.70;;;;;;;;;;6267181;22;20023;-66
2022/07/02 17:28:43;;;;;;;4.30;0.80;;;;;;;;;;6264705;22;20020;-66
2022/07/02 17:31:10;;;;;;;4.22;0.60;;;;;;;;;;6267365;22;20024;-65
2022/07/02 17:33:37;;;;;;;3.10;0.70;;;;;;;;;;6262972;22;20023;-65
2022/07/02 17:36:04;;;;;;;2.25;0.80;;;;;;;;;;6267497;22;20020;-65
2022/07/02 17:38:33;;;;;;;2.08;0.80;;;;;;;;;;6262367;22;20074;-65
2022/07/02 17:40:59;;;;;;;1.95;0.65;;;;;;;;;;6267115;22;20029;-64
2022/07/02 17:43:26;;;;;;;2.70;0.80;;;;;;;;;;6263391;22;20024;-65
2022/07/02 17:45:53;;;;;;;1.15;0.73;;;;;;;;;;6291216;22;20024;-66
2022/07/02 17:48:19;;;;;;;3.55;0.90;;;;;;;;;;6276845;22;20019;-65
2022/07/02 17:50:47;;;;;;;1.95;1.10;;;;;;;;;;6262669;22;20107;-65
2022/07/02 17:53:13;;;;;;;3.20;0.88;;;;;;;;;;6285122;22;20091;-65
2022/07/02 17:55:42;;;;;;;1.90;0.70;;;;;;;;;;6278888;22;20020;-64
2022/07/02 17:58:09;;;;;;;4.30;0.93;;;;;;;;;;6266936;22;20016;-63
2022/07/02 18:00:37;;;;;;;0.77;0.70;;;;;;;;;;6262694;22;20020;-65
2022/07/02 18:03:04;;;;;;;3.05;1.00;;;;;;;;;;6286791;22;20057;-65
2022/07/02 18:05:31;;;;;;;1.98;0.82;;;;;;;;;;6271633;22;20026;-66
2022/07/02 18:08:00;;;;;;;4.10;1.10;;;;;;;;;;6294549;22;20025;-64
2022/07/02 18:10:27;;;;;;;2.25;0.70;;;;;;;;;;6272008;22;20015;-65
2022/07/02 18:12:55;;;;;;;1.42;0.80;;;;;;;;;;6267469;22;20019;-63
2022/07/02 18:15:22;;;;;;;1.55;0.55;;;;;;;;;;6272124;22;20023;-66
2022/07/02 18:17:49;;;;;;;4.18;0.90;;;;;;;;;;6267763;22;20042;-64
2022/07/02 18:20:16;;;;;;;3.95;0.90;;;;;;;;;;6272271;22;20069;-66
2022/07/02 18:22:43;;;;;;;5.25;0.95;;;;;;;;;;6269504;22;20023;-65
2022/07/02 18:25:10;;;;;;;6.80;0.80;;;;;;;;;;6289559;22;20026;-65
2022/07/02 18:27:37;;;;;;;3.38;0.70;;;;;;;;;;6268997;22;20070;-65
2022/07/02 18:30:06;;;;;;;5.68;0.85;;;;;;;;;;6272276;22;20042;-64
2022/07/02 18:32:32;;;;;;;1.60;0.68;;;;;;;;;;6272349;22;20023;-66
2022/07/02 18:34:59;;;;;;;4.53;0.82;;;;;;;;;;6320484;22;20023;-66
2022/07/02 18:37:26;;;;;;;2.30;0.88;;;;;;;;;;6279878;22;20018;-66
2022/07/02 18:39:56;;;;;;;4.10;0.85;;;;;;;;;;6289425;22;20020;-66
2022/07/02 18:42:23;;;;;;;1.98;0.80;;;;;;;;;;6294439;22;20019;-66
2022/07/02 18:44:49;;;;;;;3.45;0.70;;;;;;;;;;6294988;22;20037;-66
2022/07/02 18:47:18;;;;;;;4.78;1.00;;;;;;;;;;6270962;22;20027;-65